PWSweather.com
Personal Weather Stations
Station Observations
KB2SBX
Sugarloaf, Sugarloaf, PA 18249

SugarloafSugarloaf, PA 18249

Lat: 41.0126685, Lon: -76.1082041

Elevation: 1030

Station Type: WS-2080

http://sugarloafpaweather.webng.com/weather.shtml

High Low Average
Temperature 41.4°F5.2°C 32.4°F0.2°C 35.7°F2.1°C
Dew Point 33.0°F0.6°C 21.2°F-6.0°C 27.1°F-2.7°C
Winds 4.3 mph 6.9 kmh Calm Calm 1.0 mph SSE1.6 kmh SSE
Wind Gusts 10.7 mph17.2 kmh -- 4.0 mph6.4 kmh
Humidity 80% 57% 71%
Pressure 30.12 in1020.0 mb 29.95 in1014.2 mb -
Precipitation 0.01 in0.3 mm - -
Hour Temp Dew Point Humidity Winds Wind Gusts Pressure Precip Precip Rate Daily Precip Total
12:00 AM 41.4°F5.2°C 33.0°F0.6°C 72% 0.5 mph ENE0.8 kmh ENE 2.2 mph3.5 kmh 29.97 in1014.9 mb 0.00 in0.0 mm 0.00 in/hr0.0 mm/hr 0.01 in0.3 mm
12:15 AM 40.6°F4.8°C 33.0°F0.6°C 74% 0.4 mph NNE0.6 kmh NNE 2.2 mph3.5 kmh 29.98 in1015.2 mb 0.00 in0.0 mm 0.00 in/hr0.0 mm/hr 0.00 in0.0 mm
12:30 AM 40.1°F4.5°C 32.5°F0.3°C 74% 0.5 mph ESE0.8 kmh ESE 3.1 mph5.0 kmh 29.98 in1015.2 mb 0.00 in0.0 mm 0.00 in/hr0.0 mm/hr 0.00 in0.0 mm
12:45 AM 39.6°F4.2°C 32.0°F0.0°C 74% 0.4 mph ESE0.6 kmh ESE 3.1 mph5.0 kmh 29.99 in1015.6 mb 0.00 in0.0 mm 0.00 in/hr0.0 mm/hr 0.00 in0.0 mm
01:00 AM 39.0°F3.9°C 31.8°F-0.1°C 75% Calm Calm -- 29.98 in1015.2 mb 0.00 in0.0 mm 0.00 in/hr0.0 mm/hr 0.00 in0.0 mm
01:15 AM 38.3°F3.5°C 31.1°F-0.5°C 75% Calm Calm 1.6 mph2.6 kmh 29.98 in1015.2 mb 0.00 in0.0 mm 0.00 in/hr0.0 mm/hr 0.00 in0.0 mm
01:30 AM 38.1°F3.4°C 30.9°F-0.6°C 75% Calm Calm 1.6 mph2.6 kmh 29.98 in1015.2 mb 0.00 in0.0 mm 0.00 in/hr0.0 mm/hr 0.00 in0.0 mm
01:45 AM 37.4°F3.0°C 30.2°F-1.0°C 75% 0.4 mph NE0.6 kmh NE 3.8 mph6.1 kmh 29.98 in1015.2 mb 0.00 in0.0 mm 0.00 in/hr0.0 mm/hr 0.00 in0.0 mm
02:00 AM 36.9°F2.7°C 28.4°F-2.0°C 71% 0.2 mph NE0.3 kmh NE 2.2 mph3.5 kmh 29.98 in1015.2 mb 0.00 in0.0 mm 0.00 in/hr0.0 mm/hr 0.00 in0.0 mm
02:15 AM 36.7°F2.6°C 28.2°F-2.1°C 71% 0.1 mph SE0.2 kmh SE 1.6 mph2.6 kmh 29.98 in1015.2 mb 0.00 in0.0 mm 0.00 in/hr0.0 mm/hr 0.00 in0.0 mm
02:30 AM 35.6°F2.0°C 27.5°F-2.5°C 72% 0.2 mph S0.3 kmh S 2.2 mph3.5 kmh 29.98 in1015.2 mb 0.00 in0.0 mm 0.00 in/hr0.0 mm/hr 0.00 in0.0 mm
02:45 AM 34.9°F1.6°C 27.1°F-2.7°C 73% Calm Calm 0.7 mph1.1 kmh 29.98 in1015.2 mb 0.00 in0.0 mm 0.00 in/hr0.0 mm/hr 0.00 in0.0 mm
03:00 AM 34.2°F1.2°C 26.4°F-3.1°C 73% Calm Calm -- 29.97 in1014.9 mb 0.00 in0.0 mm 0.00 in/hr0.0 mm/hr 0.00 in0.0 mm
03:15 AM 33.8°F1.0°C 26.7°F-2.9°C 75% Calm Calm 2.2 mph3.5 kmh 29.96 in1014.6 mb 0.00 in0.0 mm 0.00 in/hr0.0 mm/hr 0.00 in0.0 mm
03:30 AM 33.4°F0.8°C 26.7°F-2.9°C 76% 0.1 mph SE0.2 kmh SE 1.6 mph2.6 kmh 29.96 in1014.6 mb 0.00 in0.0 mm 0.00 in/hr0.0 mm/hr 0.00 in0.0 mm
03:45 AM 32.9°F0.5°C 26.5°F-3.1°C 77% 0.1 mph NE0.2 kmh NE 1.6 mph2.6 kmh 29.96 in1014.6 mb 0.00 in0.0 mm 0.00 in/hr0.0 mm/hr 0.00 in0.0 mm
04:00 AM 32.7°F0.4°C 26.3°F-3.2°C 77% Calm Calm -- 29.95 in1014.2 mb 0.00 in0.0 mm 0.00 in/hr0.0 mm/hr 0.00 in0.0 mm
04:15 AM 32.5°F0.3°C 26.5°F-3.1°C 78% 0.1 mph NE0.2 kmh NE 1.6 mph2.6 kmh 29.95 in1014.2 mb 0.00 in0.0 mm 0.00 in/hr0.0 mm/hr 0.00 in0.0 mm
04:30 AM 32.5°F0.3°C 26.5°F-3.1°C 78% Calm Calm 1.6 mph2.6 kmh 29.95 in1014.2 mb 0.00 in0.0 mm 0.00 in/hr0.0 mm/hr 0.00 in0.0 mm
04:45 AM 32.7°F0.4°C 26.9°F-2.8°C 79% Calm Calm 0.7 mph1.1 kmh 29.95 in1014.2 mb 0.00 in0.0 mm 0.00 in/hr0.0 mm/hr 0.00 in0.0 mm
05:00 AM 32.4°F0.2°C 26.6°F-3.0°C 79% 0.1 mph NW0.2 kmh NW 1.6 mph2.6 kmh 29.96 in1014.6 mb 0.00 in0.0 mm 0.00 in/hr0.0 mm/hr 0.00 in0.0 mm
05:15 AM 32.4°F0.2°C 26.6°F-3.0°C 79% Calm Calm 1.6 mph2.6 kmh 29.96 in1014.6 mb 0.00 in0.0 mm 0.00 in/hr0.0 mm/hr 0.00 in0.0 mm
05:30 AM 32.4°F0.2°C 26.6°F-3.0°C 79% 0.3 mph NE0.5 kmh NE 3.1 mph5.0 kmh 29.96 in1014.6 mb 0.00 in0.0 mm 0.00 in/hr0.0 mm/hr 0.00 in0.0 mm
05:45 AM 32.9°F0.5°C 27.1°F-2.7°C 79% Calm Calm 1.6 mph2.6 kmh 29.96 in1014.6 mb 0.00 in0.0 mm 0.00 in/hr0.0 mm/hr 0.00 in0.0 mm
06:00 AM 32.9°F0.5°C 27.4°F-2.6°C 80% 0.3 mph SE0.5 kmh SE 1.6 mph2.6 kmh 29.96 in1014.6 mb 0.00 in0.0 mm 0.00 in/hr0.0 mm/hr 0.00 in0.0 mm
06:15 AM 33.4°F0.8°C 28.0°F-2.2°C 80% 1.0 mph SE1.6 kmh SE 6.9 mph11.1 kmh 29.95 in1014.2 mb 0.00 in0.0 mm 0.00 in/hr0.0 mm/hr 0.00 in0.0 mm
06:30 AM 34.5°F1.4°C 27.8°F-2.3°C 76% 1.1 mph ESE1.8 kmh ESE 4.5 mph7.2 kmh 29.95 in1014.2 mb 0.00 in0.0 mm 0.00 in/hr0.0 mm/hr 0.00 in0.0 mm
06:45 AM 34.9°F1.6°C 27.5°F-2.5°C 74% 0.6 mph SSE1.0 kmh SSE 3.8 mph6.1 kmh 29.95 in1014.2 mb 0.00 in0.0 mm 0.00 in/hr0.0 mm/hr 0.00 in0.0 mm
07:00 AM 34.7°F1.5°C 27.0°F-2.8°C 73% 0.3 mph E0.5 kmh E 2.2 mph3.5 kmh 29.96 in1014.6 mb 0.00 in0.0 mm 0.00 in/hr0.0 mm/hr 0.00 in0.0 mm
07:15 AM 34.9°F1.6°C 27.1°F-2.7°C 73% 0.4 mph ESE0.6 kmh ESE 1.6 mph2.6 kmh 29.97 in1014.9 mb 0.00 in0.0 mm 0.00 in/hr0.0 mm/hr 0.00 in0.0 mm
07:30 AM 34.2°F1.2°C 26.4°F-3.1°C 73% Calm Calm -- 29.98 in1015.2 mb 0.00 in0.0 mm 0.00 in/hr0.0 mm/hr 0.00 in0.0 mm
07:45 AM 33.8°F1.0°C 26.7°F-2.9°C 75% 0.3 mph NNE0.5 kmh NNE 2.2 mph3.5 kmh 29.98 in1015.2 mb 0.00 in0.0 mm 0.00 in/hr0.0 mm/hr 0.00 in0.0 mm
08:00 AM 33.8°F1.0°C 27.1°F-2.7°C 76% 0.1 mph NE0.2 kmh NE 1.6 mph2.6 kmh 29.99 in1015.6 mb 0.00 in0.0 mm 0.00 in/hr0.0 mm/hr 0.00 in0.0 mm
08:15 AM 33.8°F1.0°C 27.1°F-2.7°C 76% 0.5 mph SSE0.8 kmh SSE 3.1 mph5.0 kmh 29.99 in1015.6 mb 0.00 in0.0 mm 0.00 in/hr0.0 mm/hr 0.00 in0.0 mm
08:30 AM 34.2°F1.2°C 27.4°F-2.6°C 76% 0.4 mph NE0.6 kmh NE 3.8 mph6.1 kmh 30.00 in1015.9 mb 0.00 in0.0 mm 0.00 in/hr0.0 mm/hr 0.00 in0.0 mm
08:45 AM 35.2°F1.8°C 28.1°F-2.2°C 75% 0.1 mph SE0.2 kmh SE 2.2 mph3.5 kmh 30.00 in1015.9 mb 0.00 in0.0 mm 0.00 in/hr0.0 mm/hr 0.00 in0.0 mm
09:00 AM 35.8°F2.1°C 28.3°F-2.1°C 74% 0.2 mph NNE0.3 kmh NNE 2.2 mph3.5 kmh 30.00 in1015.9 mb 0.00 in0.0 mm 0.00 in/hr0.0 mm/hr 0.00 in0.0 mm
09:15 AM 36.1°F2.3°C 27.7°F-2.4°C 71% 0.8 mph N1.3 kmh N 4.5 mph7.2 kmh 30.00 in1015.9 mb 0.00 in0.0 mm 0.00 in/hr0.0 mm/hr 0.00 in0.0 mm
09:30 AM 36.3°F2.4°C 27.5°F-2.5°C 70% 1.5 mph N2.4 kmh N 3.8 mph6.1 kmh 30.00 in1015.9 mb 0.00 in0.0 mm 0.00 in/hr0.0 mm/hr 0.00 in0.0 mm
09:45 AM 36.3°F2.4°C 27.1°F-2.7°C 69% 1.5 mph N2.4 kmh N 3.8 mph6.1 kmh 30.00 in1015.9 mb 0.00 in0.0 mm 0.00 in/hr0.0 mm/hr 0.00 in0.0 mm
10:00 AM 36.7°F2.6°C 27.5°F-2.5°C 69% 1.9 mph NW3.1 kmh NW 3.8 mph6.1 kmh 30.00 in1015.9 mb 0.00 in0.0 mm 0.00 in/hr0.0 mm/hr 0.00 in0.0 mm
10:15 AM 36.9°F2.7°C 27.7°F-2.4°C 69% 1.1 mph NW1.8 kmh NW 4.5 mph7.2 kmh 30.01 in1016.3 mb 0.00 in0.0 mm 0.00 in/hr0.0 mm/hr 0.00 in0.0 mm
10:30 AM 36.9°F2.7°C 27.3°F-2.6°C 68% 1.6 mph WNW2.6 kmh WNW 4.5 mph7.2 kmh 30.01 in1016.3 mb 0.00 in0.0 mm 0.00 in/hr0.0 mm/hr 0.00 in0.0 mm
10:45 AM 37.0°F2.8°C 27.5°F-2.5°C 68% 1.1 mph NE1.8 kmh NE 4.5 mph7.2 kmh 30.01 in1016.3 mb 0.00 in0.0 mm 0.00 in/hr0.0 mm/hr 0.00 in0.0 mm
11:00 AM 37.0°F2.8°C 27.5°F-2.5°C 68% 1.9 mph N3.1 kmh N 4.5 mph7.2 kmh 30.01 in1016.3 mb 0.00 in0.0 mm 0.00 in/hr0.0 mm/hr 0.00 in0.0 mm
11:15 AM 37.0°F2.8°C 27.1°F-2.7°C 67% 1.3 mph NNE2.1 kmh NNE 5.4 mph8.7 kmh 30.01 in1016.3 mb 0.00 in0.0 mm 0.00 in/hr0.0 mm/hr 0.00 in0.0 mm
11:30 AM 37.0°F2.8°C 27.1°F-2.7°C 67% 1.7 mph NNE2.7 kmh NNE 4.5 mph7.2 kmh 30.01 in1016.3 mb 0.00 in0.0 mm 0.00 in/hr0.0 mm/hr 0.00 in0.0 mm
11:45 AM 36.9°F2.7°C 26.9°F-2.8°C 67% 0.7 mph NW1.1 kmh NW 4.5 mph7.2 kmh 30.01 in1016.3 mb 0.00 in0.0 mm 0.00 in/hr0.0 mm/hr 0.00 in0.0 mm
12:00 PM 36.7°F2.6°C 27.1°F-2.7°C 68% 1.1 mph NE1.8 kmh NE 6.0 mph9.7 kmh 30.00 in1015.9 mb 0.00 in0.0 mm 0.00 in/hr0.0 mm/hr 0.00 in0.0 mm
12:15 PM 36.7°F2.6°C 26.8°F-2.9°C 67% 2.1 mph N3.4 kmh N 5.4 mph8.7 kmh 30.00 in1015.9 mb 0.00 in0.0 mm 0.00 in/hr0.0 mm/hr 0.00 in0.0 mm
12:30 PM 37.0°F2.8°C 27.1°F-2.7°C 67% 0.9 mph NW1.4 kmh NW 4.5 mph7.2 kmh 30.00 in1015.9 mb 0.00 in0.0 mm 0.00 in/hr0.0 mm/hr 0.00 in0.0 mm
12:45 PM 37.0°F2.8°C 26.8°F-2.9°C 66% 0.7 mph NNE1.1 kmh NNE 4.5 mph7.2 kmh 30.00 in1015.9 mb 0.00 in0.0 mm 0.00 in/hr0.0 mm/hr 0.00 in0.0 mm
01:00 PM 36.9°F2.7°C 26.6°F-3.0°C 66% 1.0 mph WSW1.6 kmh WSW 3.8 mph6.1 kmh 30.00 in1015.9 mb 0.00 in0.0 mm 0.00 in/hr0.0 mm/hr 0.00 in0.0 mm
01:15 PM 36.9°F2.7°C 26.2°F-3.2°C 65% 2.7 mph WNW4.3 kmh WNW 9.8 mph15.8 kmh 29.99 in1015.6 mb 0.00 in0.0 mm 0.00 in/hr0.0 mm/hr 0.00 in0.0 mm
01:30 PM 36.9°F2.7°C 26.2°F-3.2°C 65% 0.5 mph NNW0.8 kmh NNW 3.1 mph5.0 kmh 29.99 in1015.6 mb 0.00 in0.0 mm 0.00 in/hr0.0 mm/hr 0.00 in0.0 mm
01:45 PM 37.2°F2.9°C 26.6°F-3.0°C 65% 2.1 mph W3.4 kmh W 6.0 mph9.7 kmh 29.99 in1015.6 mb 0.00 in0.0 mm 0.00 in/hr0.0 mm/hr 0.00 in0.0 mm
02:00 PM 37.0°F2.8°C 26.0°F-3.3°C 64% 2.4 mph NW3.9 kmh NW 6.0 mph9.7 kmh 29.99 in1015.6 mb 0.00 in0.0 mm 0.00 in/hr0.0 mm/hr 0.00 in0.0 mm
02:15 PM 37.0°F2.8°C 26.4°F-3.1°C 65% 2.9 mph NNW4.7 kmh NNW 9.8 mph15.8 kmh 30.00 in1015.9 mb 0.00 in0.0 mm 0.00 in/hr0.0 mm/hr 0.00 in0.0 mm
02:30 PM 36.9°F2.7°C 26.2°F-3.2°C 65% 2.8 mph WNW4.5 kmh WNW 9.2 mph14.8 kmh 30.01 in1016.3 mb 0.00 in0.0 mm 0.00 in/hr0.0 mm/hr 0.00 in0.0 mm
02:45 PM 36.7°F2.6°C 26.0°F-3.3°C 65% 2.4 mph NW3.9 kmh NW 6.0 mph9.7 kmh 30.02 in1016.6 mb 0.00 in0.0 mm 0.00 in/hr0.0 mm/hr 0.00 in0.0 mm
03:00 PM 36.1°F2.3°C 26.3°F-3.2°C 67% 3.3 mph WNW5.3 kmh WNW 10.7 mph17.2 kmh 30.03 in1016.9 mb 0.00 in0.0 mm 0.00 in/hr0.0 mm/hr 0.00 in0.0 mm
03:15 PM 35.8°F2.1°C 25.9°F-3.4°C 67% 2.1 mph NE3.4 kmh NE 5.4 mph8.7 kmh 30.04 in1017.3 mb 0.00 in0.0 mm 0.00 in/hr0.0 mm/hr 0.00 in0.0 mm
03:30 PM 35.8°F2.1°C 25.6°F-3.6°C 66% 3.8 mph NW6.1 kmh NW 9.8 mph15.8 kmh 30.03 in1016.9 mb 0.00 in0.0 mm 0.00 in/hr0.0 mm/hr 0.00 in0.0 mm
03:45 PM 35.8°F2.1°C 25.6°F-3.6°C 66% 2.5 mph N4.0 kmh N 6.0 mph9.7 kmh 30.04 in1017.3 mb 0.00 in0.0 mm 0.00 in/hr0.0 mm/hr 0.00 in0.0 mm
04:00 PM 35.4°F1.9°C 25.9°F-3.4°C 68% 2.7 mph N4.3 kmh N 7.6 mph12.2 kmh 30.05 in1017.6 mb 0.00 in0.0 mm 0.00 in/hr0.0 mm/hr 0.00 in0.0 mm
04:15 PM 35.2°F1.8°C 26.1°F-3.3°C 69% 1.7 mph NW2.7 kmh NW 6.0 mph9.7 kmh 30.05 in1017.6 mb 0.00 in0.0 mm 0.00 in/hr0.0 mm/hr 0.00 in0.0 mm
04:30 PM 35.1°F1.7°C 25.9°F-3.4°C 69% 1.6 mph NW2.6 kmh NW 5.4 mph8.7 kmh 30.06 in1017.9 mb 0.00 in0.0 mm 0.00 in/hr0.0 mm/hr 0.00 in0.0 mm
04:45 PM 35.1°F1.7°C 25.6°F-3.6°C 68% 2.7 mph W4.3 kmh W 9.8 mph15.8 kmh 30.07 in1018.3 mb 0.00 in0.0 mm 0.00 in/hr0.0 mm/hr 0.00 in0.0 mm
05:00 PM 35.1°F1.7°C 25.2°F-3.8°C 67% 2.3 mph W3.7 kmh W 7.6 mph12.2 kmh 30.07 in1018.3 mb 0.00 in0.0 mm 0.00 in/hr0.0 mm/hr 0.00 in0.0 mm
05:15 PM 34.9°F1.6°C 24.7°F-4.1°C 66% 2.6 mph E4.2 kmh E 9.2 mph14.8 kmh 30.08 in1018.6 mb 0.00 in0.0 mm 0.00 in/hr0.0 mm/hr 0.00 in0.0 mm
05:30 PM 34.7°F1.5°C 24.2°F-4.3°C 65% 1.7 mph SW2.7 kmh SW 6.0 mph9.7 kmh 30.09 in1019.0 mb 0.00 in0.0 mm 0.00 in/hr0.0 mm/hr 0.00 in0.0 mm
05:45 PM 34.9°F1.6°C 23.2°F-4.9°C 62% 3.5 mph NNW5.6 kmh NNW 9.8 mph15.8 kmh 30.10 in1019.3 mb 0.00 in0.0 mm 0.00 in/hr0.0 mm/hr 0.00 in0.0 mm
06:00 PM 34.9°F1.6°C 22.8°F-5.1°C 61% 2.8 mph NW4.5 kmh NW 7.6 mph12.2 kmh 30.11 in1019.6 mb 0.00 in0.0 mm 0.00 in/hr0.0 mm/hr 0.00 in0.0 mm
06:15 PM 34.9°F1.6°C 22.4°F-5.3°C 60% 4.3 mph WNW6.9 kmh WNW 10.7 mph17.2 kmh 30.11 in1019.6 mb 0.00 in0.0 mm 0.00 in/hr0.0 mm/hr 0.00 in0.0 mm
06:30 PM 34.9°F1.6°C 21.2°F-6.0°C 57% 3.3 mph WNW5.3 kmh WNW 9.2 mph14.8 kmh 30.12 in1020.0 mb 0.00 in0.0 mm 0.00 in/hr0.0 mm/hr 0.00 in0.0 mm
06:45 PM 34.7°F1.5°C 21.0°F-6.1°C 57% 2.4 mph S3.9 kmh S 10.7 mph17.2 kmh 30.13 in1020.3 mb 0.00 in0.0 mm 0.00 in/hr0.0 mm/hr 0.00 in0.0 mm
07:00 PM 34.5°F1.4°C 20.9°F-6.2°C 57% 2.5 mph NW4.0 kmh NW 9.2 mph14.8 kmh 30.13 in1020.3 mb 0.00 in0.0 mm 0.00 in/hr0.0 mm/hr 0.00 in0.0 mm
07:15 PM 34.5°F1.4°C 21.3°F-5.9°C 58% 2.3 mph N3.7 kmh N 6.9 mph11.1 kmh 30.14 in1020.7 mb 0.00 in0.0 mm 0.00 in/hr0.0 mm/hr 0.00 in0.0 mm
07:30 PM 34.3°F1.3°C 21.1°F-6.1°C 58% 2.3 mph SW3.7 kmh SW 6.9 mph11.1 kmh 30.14 in1020.7 mb 0.00 in0.0 mm 0.00 in/hr0.0 mm/hr 0.00 in0.0 mm
07:45 PM 34.3°F1.3°C 20.3°F-6.5°C 56% 3.3 mph W5.3 kmh W 7.6 mph12.2 kmh 30.15 in1021.0 mb 0.00 in0.0 mm 0.00 in/hr0.0 mm/hr 0.00 in0.0 mm
08:00 PM 34.3°F1.3°C 20.7°F-6.3°C 57% 2.3 mph NW3.7 kmh NW 7.6 mph12.2 kmh 30.16 in1021.3 mb 0.00 in0.0 mm 0.00 in/hr0.0 mm/hr 0.00 in0.0 mm
08:15 PM 34.3°F1.3°C 20.3°F-6.5°C 56% 4.5 mph NW7.2 kmh NW 11.4 mph18.3 kmh 30.16 in1021.3 mb 0.00 in0.0 mm 0.00 in/hr0.0 mm/hr 0.00 in0.0 mm
08:30 PM 34.2°F1.2°C 20.1°F-6.6°C 56% 2.8 mph NE4.5 kmh NE 10.7 mph17.2 kmh 30.16 in1021.3 mb 0.00 in0.0 mm 0.00 in/hr0.0 mm/hr 0.00 in0.0 mm
08:45 PM 34.0°F1.1°C 19.5°F-6.9°C 55% 3.8 mph N6.1 kmh N 11.4 mph18.3 kmh 30.17 in1021.7 mb 0.00 in0.0 mm 0.00 in/hr0.0 mm/hr 0.00 in0.0 mm
09:00 PM 34.0°F1.1°C 18.7°F-7.4°C 53% 4.9 mph NW7.9 kmh NW 16.8 mph27.0 kmh 30.19 in1022.4 mb 0.00 in0.0 mm 0.00 in/hr0.0 mm/hr 0.00 in0.0 mm
09:15 PM 33.8°F1.0°C 18.9°F-7.3°C 54% 2.8 mph NNW4.5 kmh NNW 6.9 mph11.1 kmh 30.19 in1022.4 mb 0.00 in0.0 mm 0.00 in/hr0.0 mm/hr 0.00 in0.0 mm
09:30 PM 33.8°F1.0°C 19.4°F-7.0°C 55% 2.0 mph NW3.2 kmh NW 11.4 mph18.3 kmh 30.20 in1022.7 mb 0.00 in0.0 mm 0.00 in/hr0.0 mm/hr 0.00 in0.0 mm
09:45 PM 33.6°F0.9°C 19.6°F-6.9°C 56% 3.0 mph N4.8 kmh N 11.4 mph18.3 kmh 30.20 in1022.7 mb 0.00 in0.0 mm 0.00 in/hr0.0 mm/hr 0.00 in0.0 mm
10:00 PM 33.4°F0.8°C 19.0°F-7.2°C 55% 2.9 mph W4.7 kmh W 6.9 mph11.1 kmh 30.21 in1023.0 mb 0.00 in0.0 mm 0.00 in/hr0.0 mm/hr 0.00 in0.0 mm
10:15 PM 33.3°F0.7°C 19.7°F-6.8°C 57% 1.5 mph SE2.4 kmh SE 7.6 mph12.2 kmh 30.21 in1023.0 mb 0.00 in0.0 mm 0.00 in/hr0.0 mm/hr 0.00 in0.0 mm
10:30 PM 33.1°F0.6°C 19.5°F-6.9°C 57% 3.0 mph N4.8 kmh N 10.7 mph17.2 kmh 30.22 in1023.4 mb 0.00 in0.0 mm 0.00 in/hr0.0 mm/hr 0.00 in0.0 mm
10:45 PM 32.9°F0.5°C 19.8°F-6.8°C 58% 3.6 mph W5.8 kmh W 13.0 mph20.9 kmh 30.23 in1023.7 mb 0.00 in0.0 mm 0.00 in/hr0.0 mm/hr 0.00 in0.0 mm
11:15 PM 32.5°F0.3°C 18.2°F-7.7°C 55% 3.0 mph SSE4.8 kmh SSE 7.6 mph12.2 kmh 30.23 in1023.7 mb 0.00 in0.0 mm 0.00 in/hr0.0 mm/hr 0.00 in0.0 mm
11:30 PM 32.4°F0.2°C 17.6°F-8.0°C 54% 3.9 mph SW6.3 kmh SW 13.0 mph20.9 kmh 30.23 in1023.7 mb 0.00 in0.0 mm 0.00 in/hr0.0 mm/hr 0.00 in0.0 mm
11:45 PM 32.0°F0.0°C 16.8°F-8.4°C 53% 3.4 mph WSW5.5 kmh WSW 14.5 mph23.3 kmh 30.23 in1023.7 mb 0.00 in0.0 mm 0.00 in/hr0.0 mm/hr 0.00 in0.0 mm